sensor_id;sensor_type;location;lat;lon;timestamp;pressure;altitude;pressure_sealevel;temperature;humidity
21623;BME280;10973;46.706;12.340;2023-07-13T00:02:00;87735.44;;;19.21;56.77
21623;BME280;10973;46.706;12.340;2023-07-13T00:04:27;87746.00;;;19.09;56.58
21623;BME280;10973;46.706;12.340;2023-07-13T00:06:58;87730.72;;;19.09;57.30
21623;BME280;10973;46.706;12.340;2023-07-13T00:09:25;87717.38;;;19.09;58.04
21623;BME280;10973;46.706;12.340;2023-07-13T00:11:57;87694.13;;;19.06;58.26
21623;BME280;10973;46.706;12.340;2023-07-13T00:14:27;87667.03;;;19.08;58.37
21623;BME280;10973;46.706;12.340;2023-07-13T00:16:56;87632.44;;;19.01;57.80
21623;BME280;10973;46.706;12.340;2023-07-13T00:19:23;87601.06;;;19.05;58.26
21623;BME280;10973;46.706;12.340;2023-07-13T00:21:51;87549.13;;;19.06;57.81
21623;BME280;10973;46.706;12.340;2023-07-13T00:24:19;87512.81;;;19.08;57.87
21623;BME280;10973;46.706;12.340;2023-07-13T00:26:46;87478.09;;;19.08;59.10
21623;BME280;10973;46.706;12.340;2023-07-13T00:29:13;87516.41;;;19.02;59.29
21623;BME280;10973;46.706;12.340;2023-07-13T00:31:43;87546.78;;;18.92;59.84
21623;BME280;10973;46.706;12.340;2023-07-13T00:34:11;87523.47;;;18.92;60.32
21623;BME280;10973;46.706;12.340;2023-07-13T00:36:38;87532.06;;;18.84;59.52
21623;BME280;10973;46.706;12.340;2023-07-13T00:39:05;87544.28;;;18.85;59.54
21623;BME280;10973;46.706;12.340;2023-07-13T00:41:33;87537.75;;;18.86;58.91
21623;BME280;10973;46.706;12.340;2023-07-13T00:44:02;87542.69;;;18.87;59.20
21623;BME280;10973;46.706;12.340;2023-07-13T00:46:33;87563.22;;;18.90;59.50
21623;BME280;10973;46.706;12.340;2023-07-13T00:49:08;87575.56;;;18.84;60.00
21623;BME280;10973;46.706;12.340;2023-07-13T00:52:10;87601.31;;;18.75;59.60
21623;BME280;10973;46.706;12.340;2023-07-13T00:54:41;87604.97;;;18.65;59.55
21623;BME280;10973;46.706;12.340;2023-07-13T00:57:16;87615.56;;;18.48;59.80
21623;BME280;10973;46.706;12.340;2023-07-13T00:59:52;87621.91;;;18.55;60.40
21623;BME280;10973;46.706;12.340;2023-07-13T01:02:20;87641.38;;;18.55;60.81
21623;BME280;10973;46.706;12.340;2023-07-13T01:04:48;87643.13;;;18.62;61.02
21623;BME280;10973;46.706;12.340;2023-07-13T01:07:16;87662.94;;;18.64;61.01
21623;BME280;10973;46.706;12.340;2023-07-13T01:09:43;87673.94;;;18.66;60.98
21623;BME280;10973;46.706;12.340;2023-07-13T01:12:11;87666.69;;;18.67;60.99
21623;BME280;10973;46.706;12.340;2023-07-13T01:14:39;87670.94;;;18.64;61.68
21623;BME280;10973;46.706;12.340;2023-07-13T01:17:10;87681.19;;;18.66;61.85
21623;BME280;10973;46.706;12.340;2023-07-13T01:19:45;87687.63;;;18.68;61.59
21623;BME280;10973;46.706;12.340;2023-07-13T01:22:16;87690.97;;;18.72;61.54
21623;BME280;10973;46.706;12.340;2023-07-13T01:24:47;87696.28;;;18.76;61.30
21623;BME280;10973;46.706;12.340;2023-07-13T01:27:21;87702.72;;;18.78;61.53
21623;BME280;10973;46.706;12.340;2023-07-13T01:29:49;87697.03;;;18.76;61.24
21623;BME280;10973;46.706;12.340;2023-07-13T01:32:23;87705.78;;;18.77;61.35
21623;BME280;10973;46.706;12.340;2023-07-13T01:34:52;87692.41;;;18.77;61.13
21623;BME280;10973;46.706;12.340;2023-07-13T01:37:21;87687.09;;;18.77;60.33
21623;BME280;10973;46.706;12.340;2023-07-13T01:39:49;87671.06;;;18.77;59.92
21623;BME280;10973;46.706;12.340;2023-07-13T01:42:16;87658.91;;;18.76;60.00
21623;BME280;10973;46.706;12.340;2023-07-13T01:44:43;87639.34;;;18.79;60.55
21623;BME280;10973;46.706;12.340;2023-07-13T01:47:11;87616.09;;;18.79;60.04
21623;BME280;10973;46.706;12.340;2023-07-13T01:49:38;87594.06;;;18.75;60.12
21623;BME280;10973;46.706;12.340;2023-07-13T01:52:06;87544.91;;;18.73;59.50
21623;BME280;10973;46.706;12.340;2023-07-13T01:54:34;87497.94;;;18.75;59.23
21623;BME280;10973;46.706;12.340;2023-07-13T01:57:01;87484.31;;;18.70;59.23
21623;BME280;10973;46.706;12.340;2023-07-13T01:59:28;87476.06;;;18.44;59.83
21623;BME280;10973;46.706;12.340;2023-07-13T02:01:56;87497.88;;;18.23;60.66
21623;BME280;10973;46.706;12.340;2023-07-13T02:04:23;87526.66;;;18.12;60.38
21623;BME280;10973;46.706;12.340;2023-07-13T02:06:51;87530.28;;;18.22;61.51
21623;BME280;10973;46.706;12.340;2023-07-13T02:09:18;87553.88;;;18.23;61.72
21623;BME280;10973;46.706;12.340;2023-07-13T02:11:46;87553.03;;;18.26;61.91
21623;BME280;10973;46.706;12.340;2023-07-13T02:14:13;87542.38;;;18.26;61.62
21623;BME280;10973;46.706;12.340;2023-07-13T02:16:40;87564.44;;;18.30;60.71
21623;BME280;10973;46.706;12.340;2023-07-13T02:19:08;87584.25;;;18.29;60.39
21623;BME280;10973;46.706;12.340;2023-07-13T02:21:35;87605.59;;;18.29;60.94
21623;BME280;10973;46.706;12.340;2023-07-13T02:24:03;87629.56;;;18.33;61.39
21623;BME280;10973;46.706;12.340;2023-07-13T02:26:31;87624.56;;;18.35;61.14
21623;BME280;10973;46.706;12.340;2023-07-13T02:28:58;87590.34;;;18.30;60.24
21623;BME280;10973;46.706;12.340;2023-07-13T02:31:26;87547.56;;;18.33;60.18
21623;BME280;10973;46.706;12.340;2023-07-13T02:33:53;87518.72;;;18.28;59.90
21623;BME280;10973;46.706;12.340;2023-07-13T02:36:21;87498.63;;;18.24;59.63
21623;BME280;10973;46.706;12.340;2023-07-13T02:38:50;87504.69;;;18.24;59.19
21623;BME280;10973;46.706;12.340;2023-07-13T02:41:17;87537.22;;;18.19;59.39
21623;BME280;10973;46.706;12.340;2023-07-13T02:43:45;87550.94;;;18.18;60.13
21623;BME280;10973;46.706;12.340;2023-07-13T02:46:12;87552.44;;;18.19;60.43
21623;BME280;10973;46.706;12.340;2023-07-13T02:48:40;87531.88;;;18.19;60.85
21623;BME280;10973;46.706;12.340;2023-07-13T02:51:07;87536.03;;;18.20;60.87
21623;BME280;10973;46.706;12.340;2023-07-13T02:53:35;87555.38;;;18.24;60.28
21623;BME280;10973;46.706;12.340;2023-07-13T02:56:04;87560.72;;;18.24;60.16
21623;BME280;10973;46.706;12.340;2023-07-13T02:58:32;87556.59;;;18.20;60.19
21623;BME280;10973;46.706;12.340;2023-07-13T03:01:06;87554.78;;;18.17;60.00
21623;BME280;10973;46.706;12.340;2023-07-13T03:03:34;87550.94;;;18.18;60.60
21623;BME280;10973;46.706;12.340;2023-07-13T03:06:04;87549.44;;;18.17;61.36
21623;BME280;10973;46.706;12.340;2023-07-13T03:08:32;87541.56;;;18.10;61.09
21623;BME280;10973;46.706;12.340;2023-07-13T03:11:07;87548.81;;;18.09;61.05
21623;BME280;10973;46.706;12.340;2023-07-13T03:13:35;87553.81;;;18.07;59.45
21623;BME280;10973;46.706;12.340;2023-07-13T03:16:03;87551.91;;;18.08;59.71
21623;BME280;10973;46.706;12.340;2023-07-13T03:18:30;87559.47;;;18.09;60.41
21623;BME280;10973;46.706;12.340;2023-07-13T03:20:58;87562.63;;;18.04;60.79
21623;BME280;10973;46.706;12.340;2023-07-13T03:23:26;87563.81;;;18.03;61.00
21623;BME280;10973;46.706;12.340;2023-07-13T03:26:12;87564.25;;;17.98;61.45
21623;BME280;10973;46.706;12.340;2023-07-13T03:28:41;87564.31;;;17.95;61.43
21623;BME280;10973;46.706;12.340;2023-07-13T03:31:16;87562.16;;;17.90;61.25
21623;BME280;10973;46.706;12.340;2023-07-13T03:33:45;87572.06;;;17.89;61.11
21623;BME280;10973;46.706;12.340;2023-07-13T03:36:21;87572.06;;;17.89;60.96
21623;BME280;10973;46.706;12.340;2023-07-13T03:38:52;87577.81;;;17.88;61.05
21623;BME280;10973;46.706;12.340;2023-07-13T03:41:22;87581.63;;;17.87;61.04
21623;BME280;10973;46.706;12.340;2023-07-13T03:43:50;87583.59;;;17.83;61.09
21623;BME280;10973;46.706;12.340;2023-07-13T03:46:18;87569.91;;;17.80;61.01
21623;BME280;10973;46.706;12.340;2023-07-13T03:48:47;87584.06;;;17.77;60.86
21623;BME280;10973;46.706;12.340;2023-07-13T03:51:16;87582.94;;;17.75;61.13
21623;BME280;10973;46.706;12.340;2023-07-13T03:53:47;87582.16;;;17.78;60.81
21623;BME280;10973;46.706;12.340;2023-07-13T03:56:16;87578.81;;;17.74;60.92
21623;BME280;10973;46.706;12.340;2023-07-13T03:58:49;87581.84;;;17.72;60.81
21623;BME280;10973;46.706;12.340;2023-07-13T04:01:19;87581.16;;;17.68;61.22
21623;BME280;10973;46.706;12.340;2023-07-13T04:03:47;87585.03;;;17.64;61.27
21623;BME280;10973;46.706;12.340;2023-07-13T04:06:28;87583.53;;;17.63;61.15
21623;BME280;10973;46.706;12.340;2023-07-13T04:08:59;87583.94;;;17.61;61.31
21623;BME280;10973;46.706;12.340;2023-07-13T04:11:30;87589.28;;;17.61;60.90
21623;BME280;10973;46.706;12.340;2023-07-13T04:13:58;87585.56;;;17.55;60.96
21623;BME280;10973;46.706;12.340;2023-07-13T04:16:26;87589.47;;;17.51;60.86
21623;BME280;10973;46.706;12.340;2023-07-13T04:18:54;87588.31;;;17.48;61.05
21623;BME280;10973;46.706;12.340;2023-07-13T04:21:22;87593.34;;;17.43;60.55
21623;BME280;10973;46.706;12.340;2023-07-13T04:23:50;87595.31;;;17.39;61.04
21623;BME280;10973;46.706;12.340;2023-07-13T04:26:17;87594.28;;;17.33;61.02
21623;BME280;10973;46.706;12.340;2023-07-13T04:28:45;87596.59;;;17.31;60.66
21623;BME280;10973;46.706;12.340;2023-07-13T04:31:12;87594.66;;;17.31;60.80
21623;BME280;10973;46.706;12.340;2023-07-13T04:33:40;87593.19;;;17.30;60.62
21623;BME280;10973;46.706;12.340;2023-07-13T04:36:09;87597.06;;;17.26;60.73
21623;BME280;10973;46.706;12.340;2023-07-13T04:38:37;87605.44;;;17.24;61.13
21623;BME280;10973;46.706;12.340;2023-07-13T04:41:07;87602.03;;;17.24;61.25
21623;BME280;10973;46.706;12.340;2023-07-13T04:43:35;87593.22;;;17.27;61.38
21623;BME280;10973;46.706;12.340;2023-07-13T04:46:07;87598.16;;;17.28;61.22
21623;BME280;10973;46.706;12.340;2023-07-13T04:48:35;87605.06;;;17.22;60.66
21623;BME280;10973;46.706;12.340;2023-07-13T04:51:03;87599.06;;;17.18;60.79
21623;BME280;10973;46.706;12.340;2023-07-13T04:53:32;87596.81;;;17.17;60.84
21623;BME280;10973;46.706;12.340;2023-07-13T04:56:01;87605.94;;;17.16;61.17
21623;BME280;10973;46.706;12.340;2023-07-13T04:58:29;87593.06;;;17.10;61.00
21623;BME280;10973;46.706;12.340;2023-07-13T05:01:02;87593.50;;;17.09;60.88
21623;BME280;10973;46.706;12.340;2023-07-13T05:03:31;87599.97;;;17.08;61.05
21623;BME280;10973;46.706;12.340;2023-07-13T05:06:06;87596.56;;;17.07;61.22
21623;BME280;10973;46.706;12.340;2023-07-13T05:08:34;87599.22;;;17.07;60.81
21623;BME280;10973;46.706;12.340;2023-07-13T05:11:05;87600.38;;;17.06;60.87
21623;BME280;10973;46.706;12.340;2023-07-13T05:13:32;87599.97;;;17.08;60.64
21623;BME280;10973;46.706;12.340;2023-07-13T05:16:03;87598.88;;;17.05;60.90
21623;BME280;10973;46.706;12.340;2023-07-13T05:18:31;87610.66;;;17.04;60.70
21623;BME280;10973;46.706;12.340;2023-07-13T05:21:07;87609.91;;;17.04;60.96
21623;BME280;10973;46.706;12.340;2023-07-13T05:23:36;87608.41;;;17.03;61.36
21623;BME280;10973;46.706;12.340;2023-07-13T05:26:04;87603.84;;;17.03;61.58
21623;BME280;10973;46.706;12.340;2023-07-13T05:28:37;87602.78;;;16.97;61.38
21623;BME280;10973;46.706;12.340;2023-07-13T05:31:07;87604.25;;;17.02;61.03
21623;BME280;10973;46.706;12.340;2023-07-13T05:33:35;87609.19;;;17.03;61.27
21623;BME280;10973;46.706;12.340;2023-07-13T05:36:03;87606.50;;;17.03;61.37
21623;BME280;10973;46.706;12.340;2023-07-13T05:38:30;87609.81;;;17.11;61.40
21623;BME280;10973;46.706;12.340;2023-07-13T05:40:58;87607.13;;;17.15;61.84
21623;BME280;10973;46.706;12.340;2023-07-13T05:43:28;87605.50;;;17.21;62.02
21623;BME280;10973;46.706;12.340;2023-07-13T05:45:57;87615.25;;;17.31;62.16
21623;BME280;10973;46.706;12.340;2023-07-13T05:48:25;87617.41;;;17.39;61.95
21623;BME280;10973;46.706;12.340;2023-07-13T05:50:52;87610.03;;;17.47;62.30
21623;BME280;10973;46.706;12.340;2023-07-13T05:53:20;87614.47;;;17.57;62.11
21623;BME280;10973;46.706;12.340;2023-07-13T05:55:48;87621.56;;;17.67;62.63
21623;BME280;10973;46.706;12.340;2023-07-13T05:58:19;87627.81;;;17.80;62.35
21623;BME280;10973;46.706;12.340;2023-07-13T06:00:48;87624.19;;;17.90;61.45
21623;BME280;10973;46.706;12.340;2023-07-13T06:03:16;87619.09;;;17.99;60.97
21623;BME280;10973;46.706;12.340;2023-07-13T06:05:43;87608.72;;;18.05;60.99
21623;BME280;10973;46.706;12.340;2023-07-13T06:08:10;87611.25;;;18.12;60.89
21623;BME280;10973;46.706;12.340;2023-07-13T06:10:38;87607.28;;;18.20;61.07
21623;BME280;10973;46.706;12.340;2023-07-13T06:13:05;87607.91;;;18.27;61.26
21623;BME280;10973;46.706;12.340;2023-07-13T06:15:33;87605.47;;;18.36;61.18
21623;BME280;10973;46.706;12.340;2023-07-13T06:18:00;87590.81;;;18.44;61.16
21623;BME280;10973;46.706;12.340;2023-07-13T06:20:28;87569.47;;;18.44;61.52
21623;BME280;10973;46.706;12.340;2023-07-13T06:22:56;87586.25;;;18.45;60.96
21623;BME280;10973;46.706;12.340;2023-07-13T06:25:23;87599.25;;;18.43;59.56
21623;BME280;10973;46.706;12.340;2023-07-13T06:27:50;87601.47;;;18.48;59.58
21623;BME280;10973;46.706;12.340;2023-07-13T06:30:18;87602.13;;;18.52;60.27
21623;BME280;10973;46.706;12.340;2023-07-13T06:32:45;87594.06;;;18.56;60.25
21623;BME280;10973;46.706;12.340;2023-07-13T06:35:13;87581.00;;;18.61;60.30
21623;BME280;10973;46.706;12.340;2023-07-13T06:37:41;87581.66;;;18.65;59.74
21623;BME280;10973;46.706;12.340;2023-07-13T06:40:09;87579.69;;;18.69;59.06
21623;BME280;10973;46.706;12.340;2023-07-13T06:42:36;87579.28;;;18.71;57.81
21623;BME280;10973;46.706;12.340;2023-07-13T06:45:04;87591.59;;;18.65;56.88
21623;BME280;10973;46.706;12.340;2023-07-13T06:47:32;87594.94;;;18.69;56.00
21623;BME280;10973;46.706;12.340;2023-07-13T06:50:01;87594.38;;;18.77;56.32
21623;BME280;10973;46.706;12.340;2023-07-13T06:52:28;87600.81;;;18.80;56.11
21623;BME280;10973;46.706;12.340;2023-07-13T06:54:56;87610.19;;;18.88;57.23
21623;BME280;10973;46.706;12.340;2023-07-13T06:57:26;87610.38;;;18.97;57.61
21623;BME280;10973;46.706;12.340;2023-07-13T06:59:55;87589.63;;;19.04;57.62
21623;BME280;10973;46.706;12.340;2023-07-13T07:02:27;87588.72;;;19.11;58.12
21623;BME280;10973;46.706;12.340;2023-07-13T07:04:55;87584.31;;;19.20;58.18
21623;BME280;10973;46.706;12.340;2023-07-13T07:07:24;87572.47;;;19.21;56.92
21623;BME280;10973;46.706;12.340;2023-07-13T07:09:52;87572.63;;;19.31;57.10
21623;BME280;10973;46.706;12.340;2023-07-13T07:12:19;87573.03;;;19.29;57.78
21623;BME280;10973;46.706;12.340;2023-07-13T07:14:47;87563.31;;;19.39;57.71
21623;BME280;10973;46.706;12.340;2023-07-13T07:17:14;87571.16;;;19.46;56.59
21623;BME280;10973;46.706;12.340;2023-07-13T07:19:41;87581.69;;;19.53;57.19
21623;BME280;10973;46.706;12.340;2023-07-13T07:22:09;87579.50;;;19.64;56.87
21623;BME280;10973;46.706;12.340;2023-07-13T07:24:36;87586.19;;;19.72;56.67
21623;BME280;10973;46.706;12.340;2023-07-13T07:27:04;87579.25;;;19.74;56.53
21623;BME280;10973;46.706;12.340;2023-07-13T07:29:35;87576.91;;;19.76;57.00
21623;BME280;10973;46.706;12.340;2023-07-13T07:32:11;87572.91;;;19.84;56.35
21623;BME280;10973;46.706;12.340;2023-07-13T07:34:58;87580.09;;;19.87;56.40
21623;BME280;10973;46.706;12.340;2023-07-13T07:37:26;87584.75;;;19.83;56.76
21623;BME280;10973;46.706;12.340;2023-07-13T07:39:56;87589.03;;;19.81;57.58
21623;BME280;10973;46.706;12.340;2023-07-13T07:42:27;87585.69;;;19.77;58.98
21623;BME280;10973;46.706;12.340;2023-07-13T07:44:54;87574.59;;;19.62;59.64
21623;BME280;10973;46.706;12.340;2023-07-13T07:47:21;87588.19;;;19.52;60.49
21623;BME280;10973;46.706;12.340;2023-07-13T07:49:49;87588.63;;;19.50;60.79
21623;BME280;10973;46.706;12.340;2023-07-13T07:52:16;87583.34;;;19.47;60.76
21623;BME280;10973;46.706;12.340;2023-07-13T07:54:44;87582.69;;;19.43;60.74
21623;BME280;10973;46.706;12.340;2023-07-13T07:57:14;87580.38;;;19.25;60.50
21623;BME280;10973;46.706;12.340;2023-07-13T08:00:02;87588.06;;;19.23;60.86
21623;BME280;10973;46.706;12.340;2023-07-13T08:02:32;87579.22;;;19.26;61.35
21623;BME280;10973;46.706;12.340;2023-07-13T08:05:03;87577.97;;;19.31;61.02
21623;BME280;10973;46.706;12.340;2023-07-13T08:07:33;87591.53;;;19.40;61.05
21623;BME280;10973;46.706;12.340;2023-07-13T08:10:01;87590.97;;;19.48;60.71
21623;BME280;10973;46.706;12.340;2023-07-13T08:12:28;87592.28;;;19.56;60.83
21623;BME280;10973;46.706;12.340;2023-07-13T08:14:58;87583.78;;;19.61;60.54
21623;BME280;10973;46.706;12.340;2023-07-13T08:17:26;87586.78;;;19.63;60.26
21623;BME280;10973;46.706;12.340;2023-07-13T08:19:54;87593.22;;;19.66;59.59
21623;BME280;10973;46.706;12.340;2023-07-13T08:22:22;87592.13;;;19.63;59.20
21623;BME280;10973;46.706;12.340;2023-07-13T08:24:49;87588.28;;;19.64;58.50
21623;BME280;10973;46.706;12.340;2023-07-13T08:27:16;87592.78;;;19.67;58.00
21623;BME280;10973;46.706;12.340;2023-07-13T08:29:44;87597.31;;;19.70;58.71
21623;BME280;10973;46.706;12.340;2023-07-13T08:32:11;87597.91;;;19.78;58.51
21623;BME280;10973;46.706;12.340;2023-07-13T08:34:39;87599.31;;;19.82;58.47
21623;BME280;10973;46.706;12.340;2023-07-13T08:37:09;87606.09;;;19.87;58.00
21623;BME280;10973;46.706;12.340;2023-07-13T08:39:36;87606.09;;;19.87;56.90
21623;BME280;10973;46.706;12.340;2023-07-13T08:42:33;87602.66;;;19.86;56.87
21623;BME280;10973;46.706;12.340;2023-07-13T08:48:04;87603.81;;;19.85;56.70
21623;BME280;10973;46.706;12.340;2023-07-13T08:50:50;87601.41;;;19.91;56.96
21623;BME280;10973;46.706;12.340;2023-07-13T08:53:38;87586.00;;;19.95;56.60
21623;BME280;10973;46.706;12.340;2023-07-13T08:56:16;87587.25;;;20.07;56.38
21623;BME280;10973;46.706;12.340;2023-07-13T08:58:48;87582.78;;;20.16;55.22
21623;BME280;10973;46.706;12.340;2023-07-13T09:01:52;87574.84;;;20.29;54.01
21623;BME280;10973;46.706;12.340;2023-07-13T09:10:25;87566.50;;;20.68;52.66
21623;BME280;10973;46.706;12.340;2023-07-13T09:13:28;87566.88;;;20.83;51.01
21623;BME280;10973;46.706;12.340;2023-07-13T09:16:01;87568.50;;;20.93;51.22
21623;BME280;10973;46.706;12.340;2023-07-13T09:18:49;87567.28;;;21.10;48.97
21623;BME280;10973;46.706;12.340;2023-07-13T09:21:36;87563.31;;;21.14;48.29
21623;BME280;10973;46.706;12.340;2023-07-13T09:24:46;87561.16;;;21.22;51.87
21623;BME280;10973;46.706;12.340;2023-07-13T09:27:43;87543.06;;;21.26;53.33
21623;BME280;10973;46.706;12.340;2023-07-13T09:30:54;87541.09;;;21.26;54.08
21623;BME280;10973;46.706;12.340;2023-07-13T09:33:23;87553.09;;;21.22;54.61
21623;BME280;10973;46.706;12.340;2023-07-13T09:35:50;87558.47;;;21.22;54.75
21623;BME280;10973;46.706;12.340;2023-07-13T09:38:22;87566.19;;;21.07;55.03
21623;BME280;10973;46.706;12.340;2023-07-13T09:41:19;87573.31;;;20.98;55.44
21623;BME280;10973;46.706;12.340;2023-07-13T09:44:38;87574.28;;;20.91;55.62
21623;BME280;10973;46.706;12.340;2023-07-13T09:47:28;87585.84;;;20.88;55.75
21623;BME280;10973;46.706;12.340;2023-07-13T09:50:06;87583.34;;;20.81;56.04
21623;BME280;10973;46.706;12.340;2023-07-13T09:52:49;87588.38;;;20.79;56.66
21623;BME280;10973;46.706;12.340;2023-07-13T09:55:34;87571.03;;;20.84;57.38
21623;BME280;10973;46.706;12.340;2023-07-13T10:00:37;87567.97;;;20.98;57.21
21623;BME280;10973;46.706;12.340;2023-07-13T10:03:30;87577.09;;;21.00;57.60
21623;BME280;10973;46.706;12.340;2023-07-13T10:06:14;87576.75;;;20.98;57.48
21623;BME280;10973;46.706;12.340;2023-07-13T10:08:41;87567.31;;;20.94;55.97
21623;BME280;10973;46.706;12.340;2023-07-13T10:11:19;87555.72;;;20.97;55.38
21623;BME280;10973;46.706;12.340;2023-07-13T10:14:02;87563.88;;;20.93;55.51
21623;BME280;10973;46.706;12.340;2023-07-13T10:16:33;87558.16;;;20.79;55.35
21623;BME280;10973;46.706;12.340;2023-07-13T10:19:19;87552.41;;;20.80;55.23
21623;BME280;10973;46.706;12.340;2023-07-13T10:21:58;87549.84;;;20.89;55.65
21623;BME280;10973;46.706;12.340;2023-07-13T10:24:30;87552.53;;;21.02;55.12
21623;BME280;10973;46.706;12.340;2023-07-13T10:27:20;87555.25;;;21.14;55.30
21623;BME280;10973;46.706;12.340;2023-07-13T10:29:59;87543.78;;;21.26;55.29
21623;BME280;10973;46.706;12.340;2023-07-13T10:32:28;87556.75;;;21.41;55.04
21623;BME280;10973;46.706;12.340;2023-07-13T10:34:56;87556.53;;;21.48;54.51
21623;BME280;10973;46.706;12.340;2023-07-13T10:37:30;87552.78;;;21.58;54.39
21623;BME280;10973;46.706;12.340;2023-07-13T10:40:00;87549.78;;;21.68;54.33
21623;BME280;10973;46.706;12.340;2023-07-13T10:42:35;87549.31;;;21.70;53.46
21623;BME280;10973;46.706;12.340;2023-07-13T10:45:20;87542.56;;;21.65;54.80
21623;BME280;10973;46.706;12.340;2023-07-13T10:47:52;87534.22;;;21.76;54.52
21623;BME280;10973;46.706;12.340;2023-07-13T10:50:24;87526.28;;;21.85;54.45
21623;BME280;10973;46.706;12.340;2023-07-13T10:52:55;87528.16;;;21.97;53.98
21623;BME280;10973;46.706;12.340;2023-07-13T10:58:34;87519.19;;;22.13;53.90
21623;BME280;10973;46.706;12.340;2023-07-13T11:01:17;87514.41;;;22.08;53.22
21623;BME280;10973;46.706;12.340;2023-07-13T11:04:15;87511.06;;;22.03;53.17
21623;BME280;10973;46.706;12.340;2023-07-13T11:06:43;87509.41;;;22.19;53.84
21623;BME280;10973;46.706;12.340;2023-07-13T11:09:35;87496.88;;;22.37;53.31
21623;BME280;10973;46.706;12.340;2023-07-13T11:12:25;87500.66;;;22.61;53.09
21623;BME280;10973;46.706;12.340;2023-07-13T11:17:37;87496.66;;;22.66;50.76
21623;BME280;10973;46.706;12.340;2023-07-13T11:22:49;87479.06;;;22.74;52.33
21623;BME280;10973;46.706;12.340;2023-07-13T11:25:21;87472.97;;;22.74;51.35
21623;BME280;10973;46.706;12.340;2023-07-13T11:30:49;87479.63;;;22.91;51.06
21623;BME280;10973;46.706;12.340;2023-07-13T11:33:53;87471.69;;;22.87;49.45
21623;BME280;10973;46.706;12.340;2023-07-13T11:36:27;87466.06;;;22.94;50.72
21623;BME280;10973;46.706;12.340;2023-07-13T11:42:12;87476.47;;;23.23;49.08
21623;BME280;10973;46.706;12.340;2023-07-13T11:44:51;87470.81;;;23.30;48.75
21623;BME280;10973;46.706;12.340;2023-07-13T11:47:42;87471.88;;;23.32;47.80
21623;BME280;10973;46.706;12.340;2023-07-13T11:50:21;87465.56;;;23.26;47.83
21623;BME280;10973;46.706;12.340;2023-07-13T11:52:51;87460.56;;;23.07;47.94
21623;BME280;10973;46.706;12.340;2023-07-13T11:55:22;87458.06;;;23.12;48.38
21623;BME280;10973;46.706;12.340;2023-07-13T11:57:56;87454.50;;;23.24;49.70
21623;BME280;10973;46.706;12.340;2023-07-13T12:00:29;87468.78;;;23.34;48.63
21623;BME280;10973;46.706;12.340;2023-07-13T12:03:03;87451.91;;;23.42;48.14
21623;BME280;10973;46.706;12.340;2023-07-13T12:05:31;87458.06;;;23.52;48.66
21623;BME280;10973;46.706;12.340;2023-07-13T12:07:58;87460.75;;;23.52;47.66
21623;BME280;10973;46.706;12.340;2023-07-13T12:10:30;87459.22;;;23.42;47.23
21623;BME280;10973;46.706;12.340;2023-07-13T12:13:05;87450.69;;;23.34;46.40
21623;BME280;10973;46.706;12.340;2023-07-13T12:15:42;87446.81;;;23.45;47.27
21623;BME280;10973;46.706;12.340;2023-07-13T12:18:22;87442.84;;;23.67;47.49
21623;BME280;10973;46.706;12.340;2023-07-13T12:20:51;87440.16;;;23.76;46.75
21623;BME280;10973;46.706;12.340;2023-07-13T12:23:34;87446.91;;;23.81;46.45
21623;BME280;10973;46.706;12.340;2023-07-13T12:26:06;87449.75;;;23.77;46.55
21623;BME280;10973;46.706;12.340;2023-07-13T12:28:46;87445.25;;;23.74;46.96
21623;BME280;10973;46.706;12.340;2023-07-13T12:31:42;87444.06;;;23.66;47.28
21623;BME280;10973;46.706;12.340;2023-07-13T12:34:15;87451.19;;;23.51;47.24
21623;BME280;10973;46.706;12.340;2023-07-13T12:36:56;87451.47;;;23.35;48.72
21623;BME280;10973;46.706;12.340;2023-07-13T12:39:37;87467.34;;;23.20;49.40
21623;BME280;10973;46.706;12.340;2023-07-13T12:42:23;87474.28;;;23.00;49.92
21623;BME280;10973;46.706;12.340;2023-07-13T12:45:18;87461.63;;;22.79;51.10
21623;BME280;10973;46.706;12.340;2023-07-13T12:47:52;87463.13;;;22.58;50.43
21623;BME280;10973;46.706;12.340;2023-07-13T12:50:34;87459.59;;;22.39;51.57
21623;BME280;10973;46.706;12.340;2023-07-13T12:53:06;87456.97;;;22.27;53.65
21623;BME280;10973;46.706;12.340;2023-07-13T12:56:02;87467.50;;;21.99;54.29
21623;BME280;10973;46.706;12.340;2023-07-13T12:58:38;87461.78;;;21.76;55.55
21623;BME280;10973;46.706;12.340;2023-07-13T13:01:07;87465.53;;;21.66;56.35
21623;BME280;10973;46.706;12.340;2023-07-13T13:03:52;87471.25;;;21.55;57.85
21623;BME280;10973;46.706;12.340;2023-07-13T13:06:28;87465.81;;;21.46;57.81
21623;BME280;10973;46.706;12.340;2023-07-13T13:08:59;87472.16;;;21.40;58.12
21623;BME280;10973;46.706;12.340;2023-07-13T13:11:30;87476.44;;;21.37;57.87
21623;BME280;10973;46.706;12.340;2023-07-13T13:13:58;87485.03;;;21.32;57.94
21623;BME280;10973;46.706;12.340;2023-07-13T13:16:37;87485.25;;;21.25;58.38
21623;BME280;10973;46.706;12.340;2023-07-13T13:19:17;87492.00;;;21.17;58.79
21623;BME280;10973;46.706;12.340;2023-07-13T13:21:46;87497.16;;;21.11;59.06
21623;BME280;10973;46.706;12.340;2023-07-13T13:24:21;87501.13;;;21.07;58.69
21623;BME280;10973;46.706;12.340;2023-07-13T13:26:51;87491.66;;;21.02;58.68
21623;BME280;10973;46.706;12.340;2023-07-13T13:29:24;87487.91;;;21.00;59.21
21623;BME280;10973;46.706;12.340;2023-07-13T13:31:54;87500.03;;;20.92;58.59
21623;BME280;10973;46.706;12.340;2023-07-13T13:34:24;87501.63;;;20.89;57.68
21623;BME280;10973;46.706;12.340;2023-07-13T13:36:54;87498.19;;;20.89;57.57
21623;BME280;10973;46.706;12.340;2023-07-13T13:39:37;87497.63;;;20.81;58.17
21623;BME280;10973;46.706;12.340;2023-07-13T13:42:05;87500.13;;;20.76;58.80
21623;BME280;10973;46.706;12.340;2023-07-13T13:44:33;87499.78;;;20.74;59.18